Time;durP1;ratioP1;P1;durP2;ratioP2;P2;SDS_P1;SDS_P2;PMS_P1;PMS_P2;Temp;Humidity;BMP_temperature;BMP_pressure;BME280_temperature;BME280_humidity;BME280_pressure;Samples;Min_cycle;Max_cycle;Signal;HPM_P1;HPM_P2
2022/04/11 00:00:50;;;;;;;;;7.25;6.25;;;;;10.42;38.96;101062.25;4980560;28;46948;-62
2022/04/11 00:03:16;;;;;;;;;6.00;6.00;;;;;10.36;38.89;101057.94;4980507;28;45386;-63
2022/04/11 00:05:41;;;;;;;;;5.75;5.75;;;;;10.37;38.94;101059.66;4980510;28;45519;-62
2022/04/11 00:08:07;;;;;;;;;6.50;6.00;;;;;10.36;39.03;101068.44;4980446;28;45322;-62
2022/04/11 00:10:32;;;;;;;;;6.50;6.00;;;;;10.33;38.99;101059.69;4980526;28;45503;-62
2022/04/11 00:13:03;;;;;;;;;6.50;6.00;;;;;10.27;39.07;101052.72;4980442;28;45321;-62
2022/04/11 00:15:28;;;;;;;;;6.00;5.50;;;;;10.28;39.22;101054.47;4979618;28;45471;-62
2022/04/11 00:17:53;;;;;;;;;6.00;6.00;;;;;10.26;38.93;101056.22;4980331;28;45507;-62
2022/04/11 00:20:19;;;;;;;;;5.50;5.50;;;;;10.23;39.01;101059.72;4980171;28;46294;-63
2022/04/11 00:22:44;;;;;;;;;6.50;6.00;;;;;10.23;39.02;101058.88;4980438;28;45310;-62
2022/04/11 00:25:10;;;;;;;;;6.75;5.75;;;;;10.21;39.05;101058.00;4980505;28;45316;-62
2022/04/11 00:27:35;;;;;;;;;5.00;4.75;;;;;10.18;39.17;101056.28;4980305;28;45326;-63
2022/04/11 00:30:01;;;;;;;;;4.75;4.50;;;;;10.16;39.34;101055.44;4978963;28;45847;-62
2022/04/11 00:32:26;;;;;;;;;5.25;5.25;;;;;10.11;39.18;101040.56;4980291;28;45362;-63
2022/04/11 00:34:51;;;;;;;;;6.25;6.25;;;;;10.12;39.25;101039.69;4980246;28;45373;-62
2022/04/11 00:37:17;;;;;;;;;5.00;5.00;;;;;10.11;39.30;101030.06;4980236;28;45437;-62
2022/04/11 00:39:43;;;;;;;;;7.00;7.00;;;;;10.09;39.57;101027.47;4978746;28;45632;-62
2022/04/11 00:42:15;;;;;;;;;6.00;6.00;;;;;10.07;39.31;101019.63;4980023;28;45542;-62
2022/04/11 00:44:41;;;;;;;;;5.00;5.00;;;;;10.04;39.32;101009.13;4979360;28;45364;-62
2022/04/11 00:47:06;;;;;;;;;5.75;5.75;;;;;10.01;39.25;101001.28;4980006;28;45325;-62
2022/04/11 00:49:31;;;;;;;;;6.00;6.00;;;;;9.97;39.54;100994.28;4979729;28;47313;-63
2022/04/11 00:51:57;;;;;;;;;7.50;6.00;;;;;9.94;39.35;100983.81;4980728;28;45380;-63
2022/04/11 00:54:25;;;;;;;;;7.00;7.00;;;;;9.94;39.55;100986.44;4983535;28;45360;-62
2022/04/11 00:56:53;;;;;;;;;5.50;4.50;;;;;9.92;39.74;101002.22;4983444;28;45233;-63
2022/04/11 00:59:20;;;;;;;;;5.75;4.00;;;;;9.90;39.63;100988.22;4983276;28;45302;-62
2022/04/11 01:01:46;;;;;;;;;6.50;6.00;;;;;9.85;39.66;100987.38;4965788;28;45362;-62
2022/04/11 01:04:23;;;;;;;;;6.00;5.00;;;;;9.85;39.65;100979.50;4981885;28;45343;-62
2022/04/11 01:06:55;;;;;;;;;6.00;5.00;;;;;9.83;39.81;100977.78;4982232;28;45420;-62
2022/04/11 01:09:22;;;;;;;;;6.00;4.25;;;;;9.78;39.79;100969.94;4982850;28;46268;-61
2022/04/11 01:11:48;;;;;;;;;7.75;6.75;;;;;9.78;39.93;100969.06;4983223;28;45478;-62
2022/04/11 01:14:13;;;;;;;;;6.00;5.50;;;;;9.75;39.54;100965.56;4983185;28;45516;-62
2022/04/11 01:16:39;;;;;;;;;7.75;7.75;;;;;9.72;39.63;100968.22;4983202;28;45539;-61
2022/04/11 01:19:04;;;;;;;;;6.50;5.25;;;;;9.68;39.84;100952.50;4982680;28;47170;-61
2022/04/11 01:21:33;;;;;;;;;6.00;5.50;;;;;9.68;39.80;100953.38;4983277;28;45226;-62
2022/04/11 01:23:58;;;;;;;;;4.00;4.00;;;;;9.65;39.86;100948.16;4982986;28;45290;-62
2022/04/11 01:26:26;;;;;;;;;4.75;4.75;;;;;9.63;40.25;100939.41;4983076;28;45406;-61
2022/04/11 01:28:52;;;;;;;;;5.00;4.75;;;;;9.62;39.80;100936.81;4982832;28;45922;-62
2022/04/11 01:31:18;;;;;;;;;5.00;3.00;;;;;9.60;39.83;100931.56;4981609;28;45367;-61
2022/04/11 01:33:43;;;;;;;;;4.00;4.00;;;;;9.57;39.92;100936.81;4981776;28;45380;-62
2022/04/11 01:36:08;;;;;;;;;8.00;6.00;;;;;9.55;40.14;100920.25;4981556;28;45519;-62
2022/04/11 01:38:34;;;;;;;;;3.25;3.25;;;;;9.53;40.15;100932.50;4981290;28;46320;-61
2022/04/11 01:40:59;;;;;;;;;4.00;4.00;;;;;9.51;39.95;100926.38;4997638;28;45248;-63
2022/04/11 01:43:25;;;;;;;;;4.00;4.00;;;;;9.49;40.03;100920.28;4982787;28;45287;-62
2022/04/11 01:45:51;;;;;;;;;6.50;6.50;;;;;9.45;40.02;100924.69;4983037;28;45222;-62
2022/04/11 01:48:17;;;;;;;;;4.00;3.50;;;;;9.43;40.16;100919.44;4981215;28;46232;-61
2022/04/11 01:50:43;;;;;;;;;5.25;5.00;;;;;9.40;40.14;100908.97;4982135;28;45192;-61
2022/04/11 01:53:09;;;;;;;;;3.75;3.75;;;;;9.38;40.02;100916.00;4982625;28;45398;-62
2022/04/11 01:55:35;;;;;;;;;4.00;4.00;;;;;9.36;40.28;100912.50;4982699;28;45259;-61
2022/04/11 01:58:04;;;;;;;;;4.00;3.00;;;;;9.33;40.31;100902.00;4982272;28;45255;-61
2022/04/11 02:00:30;;;;;;;;;4.50;4.50;;;;;9.31;40.32;100909.03;4982593;28;45251;-61
2022/04/11 02:02:55;;;;;;;;;5.00;5.00;;;;;9.29;40.14;100902.06;4982122;28;45591;-62
2022/04/11 02:05:21;;;;;;;;;4.25;3.00;;;;;9.24;40.40;100899.44;4980488;28;45580;-62
2022/04/11 02:07:46;;;;;;;;;5.00;5.00;;;;;9.25;40.37;100903.81;4981006;28;47330;-61
2022/04/11 02:10:11;;;;;;;;;3.25;3.25;;;;;9.23;40.19;100897.72;4981012;28;45300;-61
2022/04/11 02:12:38;;;;;;;;;4.75;4.75;;;;;9.22;40.48;100890.72;4981097;28;45260;-61
2022/04/11 02:15:04;;;;;;;;;5.50;3.75;;;;;9.20;40.20;100888.09;4982413;28;45352;-61
2022/04/11 02:17:29;;;;;;;;;2.75;2.75;;;;;9.18;40.04;100903.00;4982117;28;46157;-61
2022/04/11 02:19:55;;;;;;;;;4.00;4.00;;;;;9.17;40.38;100893.38;4980604;28;45307;-61
2022/04/11 02:22:20;;;;;;;;;3.25;3.25;;;;;9.16;40.18;100888.16;4980984;28;45260;-61
2022/04/11 02:24:45;;;;;;;;;3.25;3.25;;;;;9.13;40.12;100881.16;4982388;28;45293;-61
2022/04/11 02:27:11;;;;;;;;;4.75;3.25;;;;;9.13;40.53;100882.91;4980689;28;46167;-61
2022/04/11 02:29:36;;;;;;;;;3.50;3.50;;;;;9.13;40.29;100872.44;4980880;28;45346;-63
2022/04/11 02:32:01;;;;;;;;;4.75;4.75;;;;;9.11;40.30;100869.81;4981990;28;45473;-61
2022/04/11 02:34:27;;;;;;;;;5.00;5.00;;;;;9.10;40.42;100868.94;4982053;28;45323;-62
2022/04/11 02:36:52;;;;;;;;;3.00;3.00;;;;;9.08;40.11;100873.34;4981752;28;46232;-61
2022/04/11 02:39:17;;;;;;;;;5.00;3.00;;;;;9.09;40.54;100869.84;4980420;28;45311;-61
2022/04/11 02:41:43;;;;;;;;;5.25;4.50;;;;;9.09;40.40;100872.47;4981845;28;45515;-62
2022/04/11 02:44:08;;;;;;;;;3.50;3.50;;;;;9.08;40.54;100873.34;4980692;28;45537;-61
2022/04/11 02:46:33;;;;;;;;;6.75;3.75;;;;;9.05;40.54;100865.47;4981691;28;46217;-61
2022/04/11 02:48:59;;;;;;;;;4.00;4.00;;;;;9.03;40.43;100862.00;4981501;28;45349;-61
2022/04/11 02:51:24;;;;;;;;;3.25;3.00;;;;;9.05;40.32;100862.00;4981655;28;45270;-61
2022/04/11 02:53:50;;;;;;;;;5.00;3.00;;;;;9.04;40.46;100863.75;4981741;28;45263;-61
2022/04/11 02:56:16;;;;;;;;;4.25;4.25;;;;;9.01;40.30;100849.78;4980087;28;46147;-61
2022/04/11 02:58:41;;;;;;;;;3.25;3.25;;;;;9.02;40.52;100848.88;4980476;28;45319;-61
2022/04/11 03:01:06;;;;;;;;;6.75;5.00;;;;;9.02;40.48;100848.88;4980014;28;45242;-61
2022/04/11 03:03:32;;;;;;;;;4.75;4.00;;;;;9.00;40.63;100833.16;4981560;28;45230;-61
2022/04/11 03:05:57;;;;;;;;;4.25;3.75;;;;;8.98;40.39;100832.34;4981257;28;46195;-61
2022/04/11 03:08:22;;;;;;;;;4.75;4.00;;;;;8.97;40.47;100825.34;4981585;28;45133;-62
2022/04/11 03:10:48;;;;;;;;;3.00;3.00;;;;;8.97;40.76;100824.44;4981387;28;45402;-61
2022/04/11 03:13:13;;;;;;;;;4.25;4.25;;;;;8.96;40.48;100825.34;4981612;28;45571;-61
2022/04/11 03:15:38;;;;;;;;;2.50;2.50;;;;;8.95;40.52;100814.00;4981291;28;45368;-60
2022/04/11 03:18:04;;;;;;;;;4.25;4.25;;;;;8.93;40.58;100815.72;4981458;28;45447;-60
2022/04/11 03:20:29;;;;;;;;;5.00;5.00;;;;;8.92;40.48;100809.63;4981072;28;45511;-61
2022/04/11 03:22:55;;;;;;;;;5.00;4.25;;;;;8.89;40.63;100803.53;4981334;28;45332;-61
2022/04/11 03:25:20;;;;;;;;;4.00;4.00;;;;;8.90;40.43;100805.28;4980920;28;46459;-61
2022/04/11 03:27:45;;;;;;;;;3.25;3.25;;;;;8.90;40.52;100805.28;4980007;28;45441;-61
2022/04/11 03:30:11;;;;;;;;;4.00;4.00;;;;;8.88;40.64;100801.78;4981218;28;45345;-61
2022/04/11 03:32:36;;;;;;;;;3.00;3.00;;;;;8.87;40.52;100818.41;4981240;28;45467;-61
2022/04/11 03:35:02;;;;;;;;;6.25;3.00;;;;;8.84;40.48;100807.94;4980650;28;46151;-61
2022/04/11 03:37:27;;;;;;;;;4.00;4.00;;;;;8.85;40.48;100817.56;4981100;28;45462;-61
2022/04/11 03:39:53;;;;;;;;;4.25;3.00;;;;;8.83;40.82;100808.81;4980803;28;45700;-61
2022/04/11 03:42:18;;;;;;;;;4.00;4.00;;;;;8.81;40.50;100813.22;4979547;28;45794;-62
2022/04/11 03:44:43;;;;;;;;;2.75;0.00;;;;;8.82;40.71;100823.69;4979772;28;47749;-62
2022/04/11 03:47:09;;;;;;;;;5.75;4.00;;;;;8.81;40.38;100806.22;4980910;28;45250;-61
2022/04/11 03:49:34;;;;;;;;;4.25;4.25;;;;;8.80;40.54;100793.97;4980751;28;45291;-61
2022/04/11 03:51:59;;;;;;;;;5.25;3.25;;;;;8.80;40.75;100803.59;4980599;28;45580;-61
2022/04/11 03:54:25;;;;;;;;;3.75;3.75;;;;;8.78;40.55;100801.84;4980694;28;46262;-61
2022/04/11 03:56:50;;;;;;;;;3.25;3.00;;;;;8.67;40.53;100777.47;4980810;28;45320;-61
2022/04/11 03:59:16;;;;;;;;;4.00;4.00;;;;;8.72;40.68;100778.31;4981079;28;45164;-61
2022/04/11 04:01:41;;;;;;;;;4.00;4.00;;;;;8.77;40.58;100771.28;4980607;28;45204;-61
2022/04/11 04:04:06;;;;;;;;;3.50;3.00;;;;;8.74;40.55;100768.69;4980446;28;45302;-61
2022/04/11 04:06:32;;;;;;;;;9.75;6.00;;;;;8.74;40.75;100766.09;4980708;28;45217;-61
2022/04/11 04:08:57;;;;;;;;;4.50;4.50;;;;;8.73;40.62;100772.19;4980715;28;45723;-62
2022/04/11 04:11:23;;;;;;;;;5.75;4.50;;;;;8.62;40.72;100755.66;4979224;28;45588;-61
2022/04/11 04:13:48;;;;;;;;;5.75;3.75;;;;;8.70;40.50;100766.09;4980500;28;46207;-61
2022/04/11 04:16:14;;;;;;;;;3.00;3.00;;;;;8.69;40.79;100764.34;4980361;28;45306;-60
2022/04/11 04:18:39;;;;;;;;;4.75;3.50;;;;;8.66;41.11;100760.00;4980780;28;45294;-61
2022/04/11 04:21:05;;;;;;;;;3.75;3.75;;;;;8.66;40.66;100762.63;4980014;28;45322;-61
2022/04/11 04:23:30;;;;;;;;;5.50;4.00;;;;;8.64;40.77;100761.78;4980435;28;45314;-61
2022/04/11 04:25:56;;;;;;;;;3.00;3.00;;;;;8.63;40.75;100762.66;4980134;28;45290;-61
2022/04/11 04:28:22;;;;;;;;;4.00;4.00;;;;;8.60;40.92;100758.31;4983698;28;45341;-61
2022/04/11 04:30:47;;;;;;;;;5.75;5.00;;;;;8.60;40.55;100760.03;4983708;28;45505;-61
2022/04/11 04:33:12;;;;;;;;;3.00;3.00;;;;;8.58;40.74;100748.72;4983820;28;47052;-62
2022/04/11 04:35:38;;;;;;;;;4.00;4.00;;;;;8.58;40.82;100751.34;4983379;28;45327;-62
2022/04/11 04:38:04;;;;;;;;;6.00;4.00;;;;;8.53;40.71;100748.72;4984068;28;45291;-61
2022/04/11 04:40:29;;;;;;;;;4.00;4.00;;;;;8.56;40.85;100750.47;4983056;28;45263;-62
2022/04/11 04:42:55;;;;;;;;;4.00;4.00;;;;;8.52;40.85;100749.59;4983805;28;45425;-63
2022/04/11 04:45:20;;;;;;;;;4.00;4.00;;;;;8.52;40.65;100740.91;4983595;28;45171;-62
2022/04/11 04:47:46;;;;;;;;;5.75;5.00;;;;;8.50;40.76;100740.88;4982442;28;45323;-62
2022/04/11 04:50:11;;;;;;;;;4.25;4.25;;;;;8.45;40.85;100734.75;4983000;28;45481;-62
2022/04/11 04:52:40;;;;;;;;;10.00;10.00;;;;;8.47;40.84;100742.66;4983284;28;46115;-62
2022/04/11 04:55:07;;;;;;;;;6.00;4.00;;;;;8.45;40.88;100735.66;4983366;28;45474;-62
2022/04/11 04:57:32;;;;;;;;;3.50;3.50;;;;;8.42;40.83;100746.13;4983592;28;45322;-62
2022/04/11 04:59:57;;;;;;;;;4.00;4.00;;;;;8.40;40.94;100744.41;4983066;28;45413;-62
2022/04/11 05:02:23;;;;;;;;;2.00;2.00;;;;;8.42;40.85;100750.50;4983335;28;45305;-63
2022/04/11 05:04:48;;;;;;;;;5.00;5.00;;;;;8.41;41.05;100756.63;4983079;28;45310;-61
2022/04/11 05:07:13;;;;;;;;;4.25;4.25;;;;;8.39;41.08;100758.38;4982562;28;45259;-62
2022/04/11 05:09:39;;;;;;;;;5.00;5.00;;;;;8.35;41.01;100760.16;4983097;28;45216;-63
2022/04/11 05:12:05;;;;;;;;;4.25;4.25;;;;;8.37;41.17;100768.84;4983227;28;45223;-62
2022/04/11 05:14:30;;;;;;;;;4.75;4.75;;;;;8.35;40.98;100775.88;4983089;28;45255;-62
2022/04/11 05:16:56;;;;;;;;;4.50;4.50;;;;;8.34;41.01;100775.84;4983487;28;45227;-62
2022/04/11 05:19:21;;;;;;;;;5.00;5.00;;;;;8.35;41.04;100775.88;4981583;28;45264;-63
2022/04/11 05:21:46;;;;;;;;;5.75;5.00;;;;;8.36;41.07;100766.25;4983031;28;45510;-63
2022/04/11 05:24:12;;;;;;;;;5.25;5.00;;;;;8.25;41.02;100737.47;4982894;28;45264;-62
2022/04/11 05:26:37;;;;;;;;;6.25;6.25;;;;;8.36;41.09;100756.63;4981907;28;45354;-63
2022/04/11 05:29:04;;;;;;;;;5.25;5.00;;;;;8.26;41.05;100737.50;4983026;28;45220;-62
2022/04/11 05:31:29;;;;;;;;;5.75;5.75;;;;;8.34;41.08;100749.66;4982904;28;45603;-63
2022/04/11 05:33:54;;;;;;;;;7.25;7.25;;;;;8.35;40.96;100757.53;4982504;28;45312;-63
2022/04/11 05:36:20;;;;;;;;;5.25;5.25;;;;;8.34;41.13;100758.41;4983182;28;45258;-63
2022/04/11 05:38:45;;;;;;;;;5.75;4.00;;;;;8.37;41.16;100753.13;4981513;28;45278;-63
2022/04/11 05:41:11;;;;;;;;;4.75;4.00;;;;;8.35;41.69;100741.81;4982463;28;46180;-63
2022/04/11 05:43:36;;;;;;;;;3.75;3.75;;;;;8.38;40.79;100747.03;4981419;28;45335;-62
2022/04/11 05:46:02;;;;;;;;;4.75;4.75;;;;;8.38;41.39;100749.66;4981602;28;45486;-63
2022/04/11 05:48:30;;;;;;;;;5.00;5.00;;;;;8.39;41.29;100746.16;4982541;28;45354;-66
2022/04/11 05:50:59;;;;;;;;;4.25;4.00;;;;;8.39;41.11;100740.91;5083517;22;46137;-64
2022/04/11 05:53:25;;;;;;;;;6.25;5.00;;;;;8.40;41.23;100739.16;4995699;28;45452;-64
2022/04/11 05:55:50;;;;;;;;;7.25;7.25;;;;;8.37;41.36;100739.19;4982590;28;45329;-63
2022/04/11 05:58:16;;;;;;;;;5.50;5.50;;;;;8.40;41.55;100753.16;4981192;28;45399;-63
2022/04/11 06:00:41;;;;;;;;;5.00;4.00;;;;;8.38;41.39;100749.66;4975929;28;45405;-62
2022/04/11 06:03:07;;;;;;;;;5.00;4.50;;;;;8.40;41.23;100754.88;4963005;28;45483;-63
2022/04/11 06:05:32;;;;;;;;;4.00;4.00;;;;;8.42;41.24;100763.59;4977833;28;45769;-63
2022/04/11 06:07:58;;;;;;;;;5.00;5.00;;;;;8.42;41.38;100760.97;4962774;28;45377;-63
2022/04/11 06:10:23;;;;;;;;;4.00;4.00;;;;;8.42;41.42;100751.38;4977548;28;46605;-62
2022/04/11 06:12:50;;;;;;;;;4.00;4.00;;;;;8.44;41.40;100748.75;4962706;28;45394;-62
2022/04/11 06:15:17;;;;;;;;;5.00;5.00;;;;;8.44;41.39;100747.00;4963095;28;45435;-62
2022/04/11 06:17:43;;;;;;;;;5.00;5.00;;;;;8.48;41.20;100754.84;4962514;28;45315;-62
2022/04/11 06:20:10;;;;;;;;;5.75;5.00;;;;;8.49;41.40;100751.38;4960931;28;45461;-62
2022/04/11 06:22:40;;;;;;;;;8.00;6.00;;;;;8.52;41.34;100746.13;4962537;28;45485;-62
2022/04/11 06:25:08;;;;;;;;;4.25;4.00;;;;;8.52;41.46;100744.38;4961502;28;45327;-62
2022/04/11 06:27:34;;;;;;;;;6.00;5.50;;;;;8.54;41.37;100749.59;4962462;28;45184;-62
2022/04/11 06:29:59;;;;;;;;;7.50;5.00;;;;;8.57;41.60;100753.06;4962378;28;46122;-62
2022/04/11 06:32:29;;;;;;;;;5.00;5.00;;;;;8.60;41.59;100760.94;4962324;28;45410;-62
2022/04/11 06:34:55;;;;;;;;;4.50;4.50;;;;;8.62;41.30;100763.53;4961133;28;45291;-62
2022/04/11 06:37:21;;;;;;;;;4.75;4.75;;;;;8.56;41.49;100742.59;4962415;28;45601;-62
2022/04/11 06:39:47;;;;;;;;;12.75;11.50;;;;;8.68;41.36;100758.25;4949621;28;45490;-63
2022/04/11 06:42:13;;;;;;;;;6.00;5.50;;;;;8.70;41.47;100746.00;4961445;28;45240;-62
2022/04/11 06:44:38;;;;;;;;;5.25;4.00;;;;;8.74;41.46;100742.50;4962437;28;45315;-62
2022/04/11 06:47:04;;;;;;;;;5.75;5.75;;;;;8.77;41.52;100744.22;4962275;28;45609;-63
2022/04/11 06:49:30;;;;;;;;;5.00;5.00;;;;;8.78;41.57;100728.50;4957400;28;45457;-63
2022/04/11 06:51:55;;;;;;;;;5.75;5.00;;;;;8.81;41.47;100708.41;4960669;28;45438;-63
2022/04/11 06:54:21;;;;;;;;;4.75;4.25;;;;;8.88;41.46;100721.44;4962232;28;45267;-64
2022/04/11 06:56:46;;;;;;;;;6.00;4.75;;;;;8.93;41.39;100727.50;4962047;28;45316;-62
2022/04/11 06:59:12;;;;;;;;;5.00;5.00;;;;;8.99;41.78;100723.97;4962005;28;46954;-63
2022/04/11 07:01:37;;;;;;;;;4.75;4.75;;;;;9.04;41.36;100716.94;4961821;28;45375;-63
2022/04/11 07:04:03;;;;;;;;;5.50;3.75;;;;;9.09;41.79;100714.28;4962376;28;45364;-63
2022/04/11 07:06:28;;;;;;;;;5.00;4.00;;;;;9.15;41.52;100701.13;4961876;28;45263;-63
2022/04/11 07:08:53;;;;;;;;;4.25;4.00;;;;;9.19;41.61;100701.97;4961954;28;45348;-63
2022/04/11 07:11:19;;;;;;;;;6.25;4.50;;;;;9.25;41.35;100699.28;4961818;28;45255;-62
2022/04/11 07:13:45;;;;;;;;;5.50;5.50;;;;;9.26;41.42;100694.00;4962061;28;45250;-63
2022/04/11 07:16:10;;;;;;;;;4.00;4.00;;;;;9.34;41.64;100696.56;4961748;28;45368;-63
2022/04/11 07:18:36;;;;;;;;;5.00;5.00;;;;;9.36;41.72;100689.56;4961869;28;45807;-62
2022/04/11 07:21:01;;;;;;;;;6.50;4.00;;;;;9.42;41.63;100686.00;4961300;28;45444;-63
2022/04/11 07:23:27;;;;;;;;;6.00;5.00;;;;;9.50;41.56;100685.94;4962082;28;45224;-64
2022/04/11 07:25:53;;;;;;;;;4.25;3.75;;;;;9.55;41.45;100673.63;4961574;28;45669;-63
2022/04/11 07:28:18;;;;;;;;;6.00;6.00;;;;;9.59;41.80;100680.56;4961873;28;46361;-63
2022/04/11 07:30:44;;;;;;;;;6.00;6.00;;;;;9.64;41.66;100675.28;4960212;28;45245;-62
2022/04/11 07:33:10;;;;;;;;;5.25;5.00;;;;;9.68;41.60;100664.72;4961892;28;45263;-62
2022/04/11 07:35:36;;;;;;;;;5.75;4.25;;;;;9.75;41.75;100665.53;4961163;28;45654;-63
2022/04/11 07:38:02;;;;;;;;;6.75;6.75;;;;;9.82;41.51;100666.31;4961665;28;45990;-63
2022/04/11 07:40:28;;;;;;;;;6.00;5.00;;;;;9.86;41.48;100670.63;4947581;28;45597;-63
2022/04/11 07:42:54;;;;;;;;;3.25;3.00;;;;;9.92;41.77;100668.81;4961583;28;45278;-63
2022/04/11 07:45:20;;;;;;;;;6.75;6.25;;;;;9.99;41.66;100669.59;4961304;28;45312;-63
2022/04/11 07:47:45;;;;;;;;;5.75;5.50;;;;;10.04;41.78;100665.16;4961217;28;45614;-63
2022/04/11 07:50:11;;;;;;;;;5.00;5.00;;;;;10.13;41.24;100672.03;4955344;28;45219;-64
2022/04/11 07:52:41;;;;;;;;;4.00;4.00;;;;;10.19;41.56;100669.34;4961264;28;45453;-63
2022/04/11 07:55:09;;;;;;;;;5.50;5.25;;;;;10.27;41.52;100663.13;4943746;28;45335;-63
2022/04/11 07:57:34;;;;;;;;;4.00;4.00;;;;;10.34;41.35;100675.25;4961159;28;45303;-63
2022/04/11 08:00:00;;;;;;;;;4.25;4.25;;;;;10.43;41.42;100666.41;4959583;28;45265;-63
2022/04/11 08:02:26;;;;;;;;;4.25;4.25;;;;;10.48;41.43;100656.72;4960437;28;45347;-64
2022/04/11 08:04:54;;;;;;;;;4.50;3.25;;;;;10.59;41.56;100660.06;4960851;28;45335;-63
2022/04/11 08:07:20;;;;;;;;;4.75;4.00;;;;;10.66;41.43;100656.41;4961073;28;46674;-63
2022/04/11 08:09:46;;;;;;;;;6.25;4.75;;;;;10.77;41.43;100663.25;4960763;28;45373;-64
2022/04/11 08:12:12;;;;;;;;;6.00;6.00;;;;;10.83;41.36;100660.53;4961087;28;45453;-64
2022/04/11 08:14:37;;;;;;;;;4.50;4.50;;;;;10.93;41.49;100663.88;4959689;28;45885;-64
2022/04/11 08:17:03;;;;;;;;;4.75;4.75;;;;;10.99;41.59;100654.13;4961010;28;46668;-64
2022/04/11 08:19:29;;;;;;;;;5.00;5.00;;;;;11.12;41.72;100653.91;4960636;28;45823;-63
2022/04/11 08:21:55;;;;;;;;;5.00;5.00;;;;;11.20;41.56;100654.63;4943734;28;45258;-63
2022/04/11 08:24:21;;;;;;;;;5.50;5.00;;;;;11.30;41.48;100647.44;4959432;28;45529;-63
2022/04/11 08:26:46;;;;;;;;;4.75;4.75;;;;;11.38;41.46;100641.16;4959540;28;46135;-64
2022/04/11 08:29:12;;;;;;;;;5.00;5.00;;;;;11.46;41.36;100653.28;4960698;28;45224;-64
2022/04/11 08:31:37;;;;;;;;;4.00;2.25;;;;;11.56;41.35;100660.13;4960878;28;45243;-63
2022/04/11 08:34:02;;;;;;;;;4.00;4.00;;;;;11.64;41.28;100646.81;4960517;28;45261;-63
2022/04/11 08:36:28;;;;;;;;;4.00;4.00;;;;;11.73;41.12;100640.47;4960808;28;45346;-64
2022/04/11 08:38:54;;;;;;;;;3.00;3.00;;;;;11.81;41.13;100643.81;4955682;28;45236;-64
2022/04/11 08:41:19;;;;;;;;;3.50;3.50;;;;;11.86;41.05;100637.56;4951509;28;45342;-64
2022/04/11 08:43:45;;;;;;;;;6.25;4.50;;;;;11.93;41.16;100635.66;4960398;28;45255;-64
2022/04/11 08:46:16;;;;;;;;;7.00;5.00;;;;;12.04;40.95;100640.72;4960912;28;47032;-64
2022/04/11 08:48:43;;;;;;;;;4.75;4.75;;;;;12.12;41.13;100638.78;4958962;28;45401;-64
2022/04/11 08:51:09;;;;;;;;;4.00;4.00;;;;;12.22;41.03;100617.50;4955014;28;45240;-64
2022/04/11 08:53:34;;;;;;;;;4.00;4.00;;;;;12.31;41.11;100623.44;4959047;28;45477;-64
2022/04/11 08:56:00;;;;;;;;;7.25;5.00;;;;;12.40;41.18;100622.38;4959028;28;45435;-64
2022/04/11 08:58:25;;;;;;;;;4.50;4.00;;;;;12.48;41.01;100612.50;4960346;28;45302;-64
2022/04/11 09:00:51;;;;;;;;;4.00;3.00;;;;;12.60;40.95;100606.06;4960670;28;45800;-65
2022/04/11 09:03:16;;;;;;;;;3.50;3.50;;;;;12.67;40.78;100599.72;4959127;28;45593;-64
2022/04/11 09:05:42;;;;;;;;;4.75;4.00;;;;;12.76;40.76;100593.34;4960286;28;46116;-65
2022/04/11 09:08:08;;;;;;;;;3.50;3.50;;;;;12.90;40.91;100602.69;4960264;28;45298;-65
2022/04/11 09:10:38;;;;;;;;;5.00;4.00;;;;;13.00;40.70;100607.69;4958755;28;45334;-64
2022/04/11 09:13:09;;;;;;;;;4.00;4.00;;;;;13.08;40.81;100589.00;4944408;28;45544;-63
2022/04/11 09:15:43;;;;;;;;;5.25;4.50;;;;;13.22;40.93;100600.94;4963443;28;46178;-63
2022/04/11 09:18:09;;;;;;;;;2.25;2.25;;;;;13.32;41.11;100600.66;4962216;28;45516;-64
2022/04/11 09:20:35;;;;;;;;;5.00;4.00;;;;;13.45;40.79;100597.72;4979531;22;45632;-63
2022/04/11 09:23:00;;;;;;;;;5.00;5.00;;;;;13.58;40.87;100598.22;5002986;28;45342;-65
2022/04/11 09:25:31;;;;;;;;;4.50;4.00;;;;;13.70;40.50;100596.97;5002372;28;45435;-64
2022/04/11 09:28:08;;;;;;;;;3.50;3.25;;;;;13.82;40.52;100586.06;5001458;28;45297;-64
2022/04/11 09:30:34;;;;;;;;;4.25;4.25;;;;;13.95;40.59;100587.41;5000571;28;45242;-64
2022/04/11 09:33:11;;;;;;;;;2.50;2.50;;;;;14.11;40.47;100590.47;5001277;28;45455;-64
2022/04/11 09:35:39;;;;;;;;;5.00;4.00;;;;;14.24;40.45;100577.72;5002123;28;46451;-64
2022/04/11 09:38:13;;;;;;;;;3.75;3.50;;;;;14.41;40.50;100568.38;5001214;28;45257;-65
2022/04/11 09:40:45;;;;;;;;;4.00;4.00;;;;;14.56;40.12;100572.28;4988594;28;45326;-64
2022/04/11 09:43:12;;;;;;;;;4.50;3.25;;;;;14.70;40.14;100574.50;5000889;28;45573;-64
2022/04/11 09:45:41;;;;;;;;;3.50;2.75;;;;;14.82;40.23;100568.78;5002308;28;46124;-64
2022/04/11 09:48:08;;;;;;;;;4.00;4.00;;;;;14.94;40.08;100562.19;5002135;28;45238;-64
2022/04/11 09:50:34;;;;;;;;;5.00;3.75;;;;;15.05;40.01;100559.19;4996797;28;45295;-64
2022/04/11 09:53:32;;;;;;;;;4.00;2.75;;;;;15.21;40.12;100563.00;5002104;28;45359;-65
2022/04/11 09:56:02;;;;;;;;;3.25;3.25;;;;;15.35;40.02;100564.28;5000551;28;45456;-64
2022/04/11 09:58:28;;;;;;;;;2.50;2.50;;;;;15.48;40.06;100557.59;5002139;28;45233;-64
2022/04/11 10:00:55;;;;;;;;;2.25;2.25;;;;;15.63;39.97;100550.00;5002221;28;45242;-65
2022/04/11 10:03:22;;;;;;;;;2.00;2.00;;;;;15.76;39.59;100549.47;5000818;28;45295;-64
2022/04/11 10:05:49;;;;;;;;;3.75;3.00;;;;;15.91;39.86;100549.81;5000443;28;47746;-65
2022/04/11 10:08:14;;;;;;;;;5.00;4.00;;;;;16.05;39.82;100551.91;4994480;28;45262;-64
2022/04/11 10:10:41;;;;;;;;;6.00;3.25;;;;;16.20;39.45;100551.31;4995235;28;45470;-64
2022/04/11 10:13:09;;;;;;;;;3.50;2.50;;;;;16.36;39.62;100548.03;5002042;28;45316;-64
2022/04/11 10:15:37;;;;;;;;;3.00;2.75;;;;;16.55;39.40;100540.16;5001767;28;45357;-65
2022/04/11 10:18:04;;;;;;;;;2.00;2.00;;;;;16.78;39.70;100538.31;5002015;28;45489;-65
2022/04/11 10:20:36;;;;;;;;;3.00;3.00;;;;;17.05;39.38;100539.78;5072961;22;45227;-65
2022/04/11 10:23:23;;;;;;;;;2.25;2.25;;;;;17.33;39.27;100535.91;5001836;28;45479;-65
2022/04/11 10:25:50;;;;;;;;;2.50;2.50;;;;;17.60;39.09;100540.03;5000709;28;46367;-65
2022/04/11 10:28:17;;;;;;;;;3.00;3.00;;;;;17.85;38.98;100531.75;5000408;28;45460;-66
2022/04/11 10:30:43;;;;;;;;;4.25;3.00;;;;;18.06;38.91;100534.31;5000209;28;45382;-65
2022/04/11 10:33:09;;;;;;;;;3.50;3.50;;;;;18.27;38.56;100537.72;5001622;28;45381;-65
2022/04/11 10:35:45;;;;;;;;;5.75;3.00;;;;;18.52;38.57;100545.34;5001167;28;45429;-65
2022/04/11 10:38:12;;;;;;;;;2.00;2.00;;;;;18.74;38.47;100550.44;5001834;28;45467;-66
2022/04/11 10:40:48;;;;;;;;;2.00;2.00;;;;;18.99;38.17;100549.16;5001169;28;45345;-64
2022/04/11 10:43:16;;;;;;;;;2.50;2.50;;;;;19.27;38.48;100534.38;5001437;28;45348;-65
2022/04/11 10:45:56;;;;;;;;;5.00;2.25;;;;;19.72;38.50;100519.50;5001371;28;45397;-65
2022/04/11 10:49:05;;;;;;;;;3.25;3.25;;;;;20.28;38.68;100516.38;5001343;28;45385;-66
2022/04/11 10:51:36;;;;;;;;;3.25;3.25;;;;;20.90;39.09;100510.06;4996713;28;45327;-65
2022/04/11 10:54:18;;;;;;;;;2.00;2.00;;;;;21.52;38.46;100509.75;5001409;28;45223;-64
2022/04/11 10:56:55;;;;;;;;;2.00;2.00;;;;;22.07;38.64;100510.69;5000902;28;45369;-66
2022/04/11 10:59:28;;;;;;;;;3.75;3.75;;;;;22.62;37.94;100509.78;4999826;28;45247;-65
2022/04/11 11:01:55;;;;;;;;;2.00;2.00;;;;;23.13;38.45;100512.47;5001374;28;45447;-65
2022/04/11 11:04:22;;;;;;;;;5.25;2.75;;;;;23.69;38.24;100495.09;5000989;28;45392;-64
2022/04/11 11:07:08;;;;;;;;;3.50;3.50;;;;;24.25;38.15;100499.06;4999772;28;47124;-63
2022/04/11 11:09:40;;;;;;;;;5.00;3.25;;;;;24.91;38.06;100495.84;5000488;28;45619;-66
2022/04/11 11:12:21;;;;;;;;;3.50;3.00;;;;;25.53;37.87;100501.72;4999815;28;45278;-66
2022/04/11 11:14:47;;;;;;;;;3.75;3.75;;;;;26.09;37.80;100489.97;4983498;28;45485;-64
2022/04/11 11:17:12;;;;;;;;;4.75;4.75;;;;;26.66;37.51;100489.69;4999572;28;45925;-64
2022/04/11 11:20:02;;;;;;;;;4.00;4.00;;;;;27.29;37.10;100491.44;4983307;28;45320;-65
2022/04/11 11:22:33;;;;;;;;;2.75;2.75;;;;;27.85;36.67;100496.28;5000785;28;45400;-64
2022/04/11 11:25:18;;;;;;;;;2.75;2.75;;;;;28.46;36.43;100505.09;4999462;28;45496;-62
2022/04/11 11:27:44;;;;;;;;;3.25;3.25;;;;;28.95;35.90;100504.19;5000652;28;46609;-63